Time;durP1;ratioP1;P1;durP2;ratioP2;P2;SDS_P1;SDS_P2;PMS_P1;PMS_P2;Temp;Humidity;BMP_temperature;BMP_pressure;BME280_temperature;BME280_humidity;BME280_pressure;Samples;Min_cycle;Max_cycle;Signal;HPM_P1;HPM_P2
2023/03/24 00:00:57;;;;;;;;;;;;;;;;;;5000537;28;19918;-89
2023/03/24 00:03:44;;;;;;;;;;;;;;;;;;5005182;28;19922;-87
2023/03/24 00:06:33;;;;;;;;;;;;;;;;;;4992237;28;19921;-89
2023/03/24 00:09:19;;;;;;;;;;;;;;;;;;4997931;28;19917;-89
2023/03/24 00:12:06;;;;;;;;;;;;;;;;;;5004905;28;19941;-88
2023/03/24 00:14:53;;;;;;;;;;;;;;;;;;5002694;28;20400;-89
2023/03/24 00:17:39;;;;;;;;;;;;;;;;;;5008914;28;19921;-89
2023/03/24 00:20:27;;;;;;;;;;;;;;;;;;4993957;28;19920;-89
2023/03/24 00:23:14;;;;;;;;;;;;;;;;;;4988347;28;19933;-88
2023/03/24 00:26:01;;;;;;;;;;;;;;;;;;4986231;28;20424;-90
2023/03/24 00:28:47;;;;;;;;;;;;;;;;;;4999924;28;20013;-89
2023/03/24 00:31:38;;;;;;;;;;;;;;;;;;5007389;28;20362;-88
2023/03/24 00:34:25;;;;;;;;;;;;;;;;;;5002004;28;19932;-89
2023/03/24 00:37:12;;;;;;;;;;;;;;;;;;5004692;28;19921;-91
2023/03/24 00:39:58;;;;;;;;;;;;;;;;;;4994849;28;20297;-88
2023/03/24 00:42:45;;;;;;;;;;;;;;;;;;5005376;28;20012;-90
2023/03/24 00:45:36;;;;;;;;;;;;;;;;;;4999127;28;20626;-89
2023/03/24 00:48:23;;;;;;;;;;;;;;;;;;5003250;28;19924;-89
2023/03/24 00:51:10;;;;;;;;;;;;;;;;;;5001732;28;19948;-91
2023/03/24 00:53:56;;;;;;;;;;;;;;;;;;5004688;28;19918;-90
2023/03/24 00:56:48;;;;;;;;;;;;;;;;;;5005821;28;20451;-91
2023/03/24 00:59:41;;;;;;;;;;;;;;;;;;4996235;28;19928;-91
2023/03/24 01:02:27;;;;;;;;;;;;;;;;;;4994729;28;19937;-88
2023/03/24 01:05:16;;;;;;;;;;;;;;;;;;5013923;28;19917;-92
2023/03/24 01:08:02;;;;;;;;;;;;;;;;;;5007748;28;19913;-91
2023/03/24 01:10:52;;;;;;;;;;;;;;;;;;5021689;28;19917;-89
2023/03/24 01:13:39;;;;;;;;;;;;;;;;;;5002672;28;19921;-87
2023/03/24 01:16:26;;;;;;;;;;;;;;;;;;4998227;28;19924;-88
2023/03/24 01:19:13;;;;;;;;;;;;;;;;;;5011066;28;19922;-88
2023/03/24 01:21:59;;;;;;;;;;;;;;;;;;4998916;28;20369;-87
2023/03/24 01:24:46;;;;;;;;;;;;;;;;;;5000354;28;19928;-88
2023/03/24 01:27:32;;;;;;;;;;;;;;;;;;5007083;28;19917;-87
2023/03/24 01:30:19;;;;;;;;;;;;;;;;;;5009227;28;20412;-88
2023/03/24 01:33:05;;;;;;;;;;;;;;;;;;5007254;28;19914;-87
2023/03/24 01:35:52;;;;;;;;;;;;;;;;;;4997674;28;19927;-87
2023/03/24 01:38:38;;;;;;;;;;;;;;;;;;5008902;28;20468;-88
2023/03/24 01:41:25;;;;;;;;;;;;;;;;;;5002565;28;19921;-89
2023/03/24 01:44:11;;;;;;;;;;;;;;;;;;5006502;28;20416;-89
2023/03/24 01:46:58;;;;;;;;;;;;;;;;;;5002954;28;20008;-89
2023/03/24 01:49:44;;;;;;;;;;;;;;;;;;4996840;28;19926;-90
2023/03/24 01:52:31;;;;;;;;;;;;;;;;;;5003577;28;19918;-89
2023/03/24 01:55:18;;;;;;;;;;;;;;;;;;5009572;28;19918;-88
2023/03/24 01:58:06;;;;;;;;;;;;;;;;;;5005803;28;19917;-90
2023/03/24 02:00:53;;;;;;;;;;;;;;;;;;5004118;28;19918;-91
2023/03/24 02:03:40;;;;;;;;;;;;;;;;;;5003529;28;19943;-89
2023/03/24 02:06:27;;;;;;;;;;;;;;;;;;4996868;28;20297;-89
2023/03/24 02:09:13;;;;;;;;;;;;;;;;;;5010815;28;19914;-90
2023/03/24 02:12:01;;;;;;;;;;;;;;;;;;5000921;28;19921;-89
2023/03/24 02:14:48;;;;;;;;;;;;;;;;;;5001702;28;19929;-89
2023/03/24 02:17:34;;;;;;;;;;;;;;;;;;5004650;28;19922;-88
2023/03/24 02:20:21;;;;;;;;;;;;;;;;;;5009591;28;19925;-89
2023/03/24 02:23:08;;;;;;;;;;;;;;;;;;5007059;28;19929;-88
2023/03/24 02:25:55;;;;;;;;;;;;;;;;;;4997078;28;19921;-89
2023/03/24 02:28:42;;;;;;;;;;;;;;;;;;5002600;28;19917;-88
2023/03/24 02:31:28;;;;;;;;;;;;;;;;;;5000162;28;19918;-89
2023/03/24 02:34:15;;;;;;;;;;;;;;;;;;5006274;28;19913;-89
2023/03/24 02:37:01;;;;;;;;;;;;;;;;;;5010628;28;19932;-89
2023/03/24 02:39:48;;;;;;;;;;;;;;;;;;5004060;28;19917;-89
2023/03/24 02:42:34;;;;;;;;;;;;;;;;;;5001696;28;19932;-93
2023/03/24 02:45:21;;;;;;;;;;;;;;;;;;5005505;28;20216;-90
2023/03/24 02:48:07;;;;;;;;;;;;;;;;;;5004926;28;19914;-91
2023/03/24 02:50:54;;;;;;;;;;;;;;;;;;5007681;28;19928;-89
2023/03/24 02:53:40;;;;;;;;;;;;;;;;;;5004391;28;19928;-90
2023/03/24 02:56:28;;;;;;;;;;;;;;;;;;5005527;28;19917;-89
2023/03/24 02:59:15;;;;;;;;;;;;;;;;;;5004243;28;19924;-89
2023/03/24 03:02:01;;;;;;;;;;;;;;;;;;5002638;28;19930;-90
2023/03/24 03:04:48;;;;;;;;;;;;;;;;;;5009893;28;19917;-93
2023/03/24 03:07:36;;;;;;;;;;;;;;;;;;4998763;28;20389;-91
2023/03/24 03:10:22;;;;;;;;;;;;;;;;;;4993566;28;19920;-88
2023/03/24 03:13:09;;;;;;;;;;;;;;;;;;5008469;28;20376;-90
2023/03/24 03:15:56;;;;;;;;;;;;;;;;;;5008007;28;19933;-90
2023/03/24 03:18:42;;;;;;;;;;;;;;;;;;5008086;28;19943;-90
2023/03/24 03:21:29;;;;;;;;;;;;;;;;;;5006250;28;19918;-89
2023/03/24 03:24:16;;;;;;;;;;;;;;;;;;5003204;28;19921;-91
2023/03/24 03:27:02;;;;;;;;;;;;;;;;;;5009189;28;19917;-91
2023/03/24 03:29:49;;;;;;;;;;;;;;;;;;5006644;28;19917;-90
2023/03/24 03:32:37;;;;;;;;;;;;;;;;;;5003466;28;20274;-90
2023/03/24 03:35:24;;;;;;;;;;;;;;;;;;5006139;28;19917;-90
2023/03/24 03:38:12;;;;;;;;;;;;;;;;;;5001664;28;19937;-89
2023/03/24 03:40:59;;;;;;;;;;;;;;;;;;4997942;28;19924;-89
2023/03/24 03:43:45;;;;;;;;;;;;;;;;;;4992825;28;19925;-90
2023/03/24 03:46:32;;;;;;;;;;;;;;;;;;4998426;28;19926;-90
2023/03/24 03:49:19;;;;;;;;;;;;;;;;;;5008454;28;19945;-88
2023/03/24 03:52:05;;;;;;;;;;;;;;;;;;4995015;28;19922;-88
2023/03/24 03:54:52;;;;;;;;;;;;;;;;;;5002930;28;20445;-88
2023/03/24 03:57:38;;;;;;;;;;;;;;;;;;5009386;28;19925;-88
2023/03/24 04:00:25;;;;;;;;;;;;;;;;;;5007842;28;19925;-88
2023/03/24 04:03:11;;;;;;;;;;;;;;;;;;5002538;28;19930;-88
2023/03/24 04:06:00;;;;;;;;;;;;;;;;;;5005139;28;19917;-89
2023/03/24 04:08:47;;;;;;;;;;;;;;;;;;4994439;28;19940;-89
2023/03/24 04:11:33;;;;;;;;;;;;;;;;;;5004450;28;19924;-90
2023/03/24 04:14:20;;;;;;;;;;;;;;;;;;5004329;28;19929;-89
2023/03/24 04:17:06;;;;;;;;;;;;;;;;;;4998566;28;19914;-90
2023/03/24 04:19:54;;;;;;;;;;;;;;;;;;5001844;28;19964;-88
2023/03/24 04:22:41;;;;;;;;;;;;;;;;;;4993468;28;20589;-88
2023/03/24 04:25:27;;;;;;;;;;;;;;;;;;5002122;28;19918;-89
2023/03/24 04:28:14;;;;;;;;;;;;;;;;;;5005790;28;19921;-90
2023/03/24 04:31:00;;;;;;;;;;;;;;;;;;4996787;28;19925;-87
2023/03/24 04:33:49;;;;;;;;;;;;;;;;;;4999808;28;19975;-87
2023/03/24 04:36:41;;;;;;;;;;;;;;;;;;5001212;28;20389;-88
2023/03/24 04:39:27;;;;;;;;;;;;;;;;;;5004142;28;20564;-88
2023/03/24 04:42:14;;;;;;;;;;;;;;;;;;4999735;28;20304;-87
2023/03/24 04:45:01;;;;;;;;;;;;;;;;;;5001627;28;19918;-87
2023/03/24 04:47:48;;;;;;;;;;;;;;;;;;4995977;28;19925;-85
2023/03/24 04:50:35;;;;;;;;;;;;;;;;;;5000638;28;20396;-86
2023/03/24 04:53:21;;;;;;;;;;;;;;;;;;5002725;28;19924;-84
2023/03/24 04:56:08;;;;;;;;;;;;;;;;;;5003637;28;20429;-86
2023/03/24 04:58:55;;;;;;;;;;;;;;;;;;5000679;28;20309;-89
2023/03/24 05:01:48;;;;;;;;;;;;;;;;;;5000199;28;19922;-85
2023/03/24 05:04:35;;;;;;;;;;;;;;;;;;4981450;28;19929;-90
2023/03/24 05:07:22;;;;;;;;;;;;;;;;;;5006544;28;19925;-89
2023/03/24 05:10:08;;;;;;;;;;;;;;;;;;4998513;28;19913;-88
2023/03/24 05:12:55;;;;;;;;;;;;;;;;;;4995129;28;19929;-88
2023/03/24 05:15:41;;;;;;;;;;;;;;;;;;4998774;28;20319;-89
2023/03/24 05:18:28;;;;;;;;;;;;;;;;;;4996525;28;20297;-89
2023/03/24 05:21:14;;;;;;;;;;;;;;;;;;5002692;28;19922;-89
2023/03/24 05:24:01;;;;;;;;;;;;;;;;;;4997088;28;20352;-89
2023/03/24 05:26:47;;;;;;;;;;;;;;;;;;4997410;28;19921;-87
2023/03/24 05:29:34;;;;;;;;;;;;;;;;;;4999601;28;19953;-88
2023/03/24 05:32:20;;;;;;;;;;;;;;;;;;5001585;28;19913;-90
2023/03/24 05:35:07;;;;;;;;;;;;;;;;;;5004489;28;19922;-90
2023/03/24 05:37:53;;;;;;;;;;;;;;;;;;4999418;28;19922;-90
2023/03/24 05:40:40;;;;;;;;;;;;;;;;;;5002703;28;19936;-91
2023/03/24 05:43:26;;;;;;;;;;;;;;;;;;4993773;28;20555;-91
2023/03/24 05:46:13;;;;;;;;;;;;;;;;;;5002026;28;20042;-89
2023/03/24 05:48:59;;;;;;;;;;;;;;;;;;4991703;28;19929;-90
2023/03/24 05:51:46;;;;;;;;;;;;;;;;;;5005248;28;19920;-89
2023/03/24 05:54:32;;;;;;;;;;;;;;;;;;4999411;28;19925;-89
2023/03/24 05:57:19;;;;;;;;;;;;;;;;;;5001953;28;19918;-90
2023/03/24 06:00:09;;;;;;;;;;;;;;;;;;5004031;28;19914;-89
2023/03/24 06:02:55;;;;;;;;;;;;;;;;;;5003598;28;19932;-90
2023/03/24 06:05:44;;;;;;;;;;;;;;;;;;4988931;28;20289;-91
2023/03/24 06:08:32;;;;;;;;;;;;;;;;;;4997365;28;19914;-91
2023/03/24 06:11:19;;;;;;;;;;;;;;;;;;5009205;28;19932;-89
2023/03/24 06:14:06;;;;;;;;;;;;;;;;;;5006413;28;19929;-89
2023/03/24 06:16:53;;;;;;;;;;;;;;;;;;5007408;28;19932;-89
2023/03/24 06:19:39;;;;;;;;;;;;;;;;;;5010027;28;19917;-91
2023/03/24 06:22:25;;;;;;;;;;;;;;;;;;5012947;28;19928;-91
2023/03/24 06:25:14;;;;;;;;;;;;;;;;;;5003042;28;19929;-89
2023/03/24 06:28:03;;;;;;;;;;;;;;;;;;5005182;28;19924;-89
2023/03/24 06:30:49;;;;;;;;;;;;;;;;;;5001071;28;19921;-91
2023/03/24 06:33:35;;;;;;;;;;;;;;;;;;5006776;28;19928;-94
2023/03/24 06:36:22;;;;;;;;;;;;;;;;;;5010265;28;20612;-90
2023/03/24 06:39:09;;;;;;;;;;;;;;;;;;5004717;28;19922;-93
2023/03/24 06:41:55;;;;;;;;;;;;;;;;;;5010000;28;19917;-86
2023/03/24 06:44:42;;;;;;;;;;;;;;;;;;5000398;28;19928;-86
2023/03/24 06:47:28;;;;;;;;;;;;;;;;;;4998634;28;19922;-85
2023/03/24 06:50:15;;;;;;;;;;;;;;;;;;5003617;28;19913;-86
2023/03/24 06:53:01;;;;;;;;;;;;;;;;;;5002081;28;20383;-85
2023/03/24 06:55:48;;;;;;;;;;;;;;;;;;4999367;28;19917;-86
2023/03/24 06:58:34;;;;;;;;;;;;;;;;;;5000264;28;19956;-85
2023/03/24 07:01:21;;;;;;;;;;;;;;;;;;5000722;28;19918;-86
2023/03/24 07:04:07;;;;;;;;;;;;;;;;;;4998390;28;19930;-86
2023/03/24 07:06:54;;;;;;;;;;;;;;;;;;5002762;28;20475;-86
2023/03/24 07:09:41;;;;;;;;;;;;;;;;;;5006089;28;20297;-86
2023/03/24 07:12:27;;;;;;;;;;;;;;;;;;5005140;28;19917;-86
2023/03/24 07:15:14;;;;;;;;;;;;;;;;;;5004549;28;19930;-86
2023/03/24 07:18:00;;;;;;;;;;;;;;;;;;5000236;28;20281;-86
2023/03/24 07:20:47;;;;;;;;;;;;;;;;;;5001317;28;19949;-86
2023/03/24 07:23:33;;;;;;;;;;;;;;;;;;5004181;28;19930;-86
2023/03/24 07:26:20;;;;;;;;;;;;;;;;;;4998003;28;19917;-86
2023/03/24 07:29:07;;;;;;;;;;;;;;;;;;4999025;28;19918;-86
2023/03/24 07:31:57;;;;;;;;;;;;;;;;;;5002329;28;19932;-85
2023/03/24 07:34:45;;;;;;;;;;;;;;;;;;5002951;28;20411;-86
2023/03/24 07:37:31;;;;;;;;;;;;;;;;;;4995932;28;19945;-86
2023/03/24 07:40:18;;;;;;;;;;;;;;;;;;5010596;28;20384;-85
2023/03/24 07:43:04;;;;;;;;;;;;;;;;;;4999384;28;19929;-85
2023/03/24 07:45:50;;;;;;;;;;;;;;;;;;4998624;28;19940;-86
2023/03/24 07:48:37;;;;;;;;;;;;;;;;;;5001959;28;21960;-87
2023/03/24 07:51:24;;;;;;;;;;;;;;;;;;5000790;28;19925;-86
2023/03/24 07:54:10;;;;;;;;;;;;;;;;;;5004003;28;20301;-87
2023/03/24 07:56:57;;;;;;;;;;;;;;;;;;5000301;28;20373;-86
2023/03/24 07:59:43;;;;;;;;;;;;;;;;;;4998643;28;19921;-86
2023/03/24 08:02:30;;;;;;;;;;;;;;;;;;5000419;28;20603;-86
2023/03/24 08:05:18;;;;;;;;;;;;;;;;;;4995345;28;20678;-86
2023/03/24 08:08:05;;;;;;;;;;;;;;;;;;5001166;28;19918;-86
2023/03/24 08:10:52;;;;;;;;;;;;;;;;;;4979906;28;19917;-86
2023/03/24 08:13:38;;;;;;;;;;;;;;;;;;5001211;28;19929;-86
2023/03/24 08:16:24;;;;;;;;;;;;;;;;;;5001742;28;20303;-86
2023/03/24 08:19:11;;;;;;;;;;;;;;;;;;4998537;28;19918;-86
2023/03/24 08:21:58;;;;;;;;;;;;;;;;;;4998075;28;19928;-86
2023/03/24 08:24:44;;;;;;;;;;;;;;;;;;4999955;28;20265;-86
2023/03/24 08:27:30;;;;;;;;;;;;;;;;;;4999143;28;19925;-86
2023/03/24 08:30:17;;;;;;;;;;;;;;;;;;4998066;28;19922;-85
2023/03/24 08:33:04;;;;;;;;;;;;;;;;;;5002159;28;19926;-87
2023/03/24 08:35:56;;;;;;;;;;;;;;;;;;5002844;28;19918;-86
2023/03/24 08:38:42;;;;;;;;;;;;;;;;;;5002710;28;19924;-87
2023/03/24 08:41:35;;;;;;;;;;;;;;;;;;5001475;28;19922;-85
2023/03/24 08:44:21;;;;;;;;;;;;;;;;;;4999083;28;19936;-86
2023/03/24 08:47:08;;;;;;;;;;;;;;;;;;4995380;28;19925;-87
2023/03/24 08:49:56;;;;;;;;;;;;;;;;;;4999458;28;19925;-86
2023/03/24 08:52:46;;;;;;;;;;;;;;;;;;5000692;28;21544;-86
2023/03/24 08:55:33;;;;;;;;;;;;;;;;;;5001018;28;19922;-86
2023/03/24 08:58:19;;;;;;;;;;;;;;;;;;5002222;28;19921;-86
2023/03/24 09:01:06;;;;;;;;;;;;;;;;;;5002228;28;19917;-86
2023/03/24 09:03:53;;;;;;;;;;;;;;;;;;4999936;28;19976;-86
2023/03/24 09:06:39;;;;;;;;;;;;;;;;;;5004059;28;20460;-86
2023/03/24 09:09:27;;;;;;;;;;;;;;;;;;5002133;28;19918;-86
2023/03/24 09:12:15;;;;;;;;;;;;;;;;;;5001133;28;19925;-86
2023/03/24 09:15:01;;;;;;;;;;;;;;;;;;4999095;28;19931;-85
2023/03/24 09:17:48;;;;;;;;;;;;;;;;;;5002042;28;19922;-86
2023/03/24 09:20:34;;;;;;;;;;;;;;;;;;5000079;28;19922;-86
2023/03/24 09:23:21;;;;;;;;;;;;;;;;;;5000851;28;19929;-86
2023/03/24 09:26:07;;;;;;;;;;;;;;;;;;4997778;28;20415;-85
2023/03/24 09:28:54;;;;;;;;;;;;;;;;;;5001008;28;19926;-85
2023/03/24 09:31:41;;;;;;;;;;;;;;;;;;4999919;28;20276;-86
2023/03/24 09:34:27;;;;;;;;;;;;;;;;;;5000966;28;19928;-85
2023/03/24 09:37:14;;;;;;;;;;;;;;;;;;5003015;28;19925;-86
2023/03/24 09:40:01;;;;;;;;;;;;;;;;;;5003490;28;19925;-86
2023/03/24 09:42:47;;;;;;;;;;;;;;;;;;5000253;28;19926;-85
2023/03/24 09:45:34;;;;;;;;;;;;;;;;;;5000277;28;19929;-87
2023/03/24 09:48:20;;;;;;;;;;;;;;;;;;5002005;28;20396;-80
2023/03/24 09:51:07;;;;;;;;;;;;;;;;;;5001384;28;20285;-80
2023/03/24 09:53:53;;;;;;;;;;;;;;;;;;4999073;28;19925;-80
2023/03/24 09:56:40;;;;;;;;;;;;;;;;;;5002494;28;19944;-80
2023/03/24 09:59:26;;;;;;;;;;;;;;;;;;5003513;28;20423;-81
2023/03/24 10:02:13;;;;;;;;;;;;;;;;;;5006137;28;19929;-80
2023/03/24 10:04:59;;;;;;;;;;;;;;;;;;5003964;28;20337;-84
2023/03/24 10:07:46;;;;;;;;;;;;;;;;;;5001976;28;19918;-80
2023/03/24 10:10:32;;;;;;;;;;;;;;;;;;4999300;28;19921;-78
2023/03/24 10:13:19;;;;;;;;;;;;;;;;;;5002239;28;19926;-77
2023/03/24 10:16:06;;;;;;;;;;;;;;;;;;5004575;28;20471;-77
2023/03/24 10:18:52;;;;;;;;;;;;;;;;;;4999083;28;19928;-81
2023/03/24 10:21:40;;;;;;;;;;;;;;;;;;4999405;28;19928;-81
2023/03/24 10:24:26;;;;;;;;;;;;;;;;;;5001778;28;19940;-81
2023/03/24 10:27:13;;;;;;;;;;;;;;;;;;5000060;28;20412;-82
2023/03/24 10:30:00;;;;;;;;;;;;;;;;;;5002747;28;19926;-81
2023/03/24 10:32:46;;;;;;;;;;;;;;;;;;4997651;28;19913;-80
2023/03/24 10:35:33;;;;;;;;;;;;;;;;;;5002315;28;19917;-80
2023/03/24 10:38:19;;;;;;;;;;;;;;;;;;5003799;28;19924;-81
2023/03/24 10:41:06;;;;;;;;;;;;;;;;;;4997977;28;19913;-80
2023/03/24 10:43:52;;;;;;;;;;;;;;;;;;4988111;28;20396;-81
2023/03/24 10:46:39;;;;;;;;;;;;;;;;;;4993705;28;19929;-80
2023/03/24 10:49:25;;;;;;;;;;;;;;;;;;5003585;28;19917;-81
2023/03/24 10:52:12;;;;;;;;;;;;;;;;;;5005435;28;19913;-81
2023/03/24 10:54:59;;;;;;;;;;;;;;;;;;4995838;28;20449;-83
2023/03/24 10:57:45;;;;;;;;;;;;;;;;;;4998195;28;19917;-80
2023/03/24 11:00:32;;;;;;;;;;;;;;;;;;5003593;28;20281;-81
2023/03/24 11:03:18;;;;;;;;;;;;;;;;;;5005773;28;19926;-80
2023/03/24 11:06:05;;;;;;;;;;;;;;;;;;4997616;28;19922;-81
2023/03/24 11:08:52;;;;;;;;;;;;;;;;;;4991910;28;20396;-80
2023/03/24 11:11:38;;;;;;;;;;;;;;;;;;4995224;28;19926;-80
2023/03/24 11:14:25;;;;;;;;;;;;;;;;;;4999709;28;19929;-80
2023/03/24 11:17:12;;;;;;;;;;;;;;;;;;4981662;28;19922;-80
2023/03/24 11:19:58;;;;;;;;;;;;;;;;;;4986028;28;19973;-80
2023/03/24 11:22:45;;;;;;;;;;;;;;;;;;4997033;28;19955;-81
2023/03/24 11:25:31;;;;;;;;;;;;;;;;;;4997057;28;20377;-80
2023/03/24 11:28:18;;;;;;;;;;;;;;;;;;5001894;28;20286;-80
2023/03/24 11:31:04;;;;;;;;;;;;;;;;;;5007036;28;19933;-81
2023/03/24 11:33:51;;;;;;;;;;;;;;;;;;4994501;28;19924;-81
2023/03/24 11:36:41;;;;;;;;;;;;;;;;;;4997556;28;19933;-81
2023/03/24 11:39:28;;;;;;;;;;;;;;;;;;4992548;28;20285;-81
2023/03/24 11:42:15;;;;;;;;;;;;;;;;;;5001918;28;19928;-81
2023/03/24 11:45:03;;;;;;;;;;;;;;;;;;4997754;28;19928;-80
2023/03/24 11:47:52;;;;;;;;;;;;;;;;;;4977799;28;19933;-81
2023/03/24 11:50:39;;;;;;;;;;;;;;;;;;4996074;28;19922;-81
2023/03/24 11:53:25;;;;;;;;;;;;;;;;;;4993523;28;19917;-80
2023/03/24 11:56:12;;;;;;;;;;;;;;;;;;4996136;28;19917;-80
2023/03/24 11:58:58;;;;;;;;;;;;;;;;;;4987114;28;20047;-81
2023/03/24 12:01:45;;;;;;;;;;;;;;;;;;5005253;28;19928;-81
2023/03/24 12:04:32;;;;;;;;;;;;;;;;;;5004176;28;19933;-81
2023/03/24 12:07:18;;;;;;;;;;;;;;;;;;5001880;28;19952;-80
2023/03/24 12:10:05;;;;;;;;;;;;;;;;;;4999564;28;19955;-82
2023/03/24 12:12:51;;;;;;;;;;;;;;;;;;4997696;28;19914;-81
2023/03/24 12:15:37;;;;;;;;;;;;;;;;;;4997786;28;19945;-80
2023/03/24 12:18:24;;;;;;;;;;;;;;;;;;4992594;28;20545;-80
2023/03/24 12:21:11;;;;;;;;;;;;;;;;;;4997913;28;19917;-80
2023/03/24 12:23:57;;;;;;;;;;;;;;;;;;5002672;28;19929;-80
2023/03/24 12:26:44;;;;;;;;;;;;;;;;;;4989338;28;19917;-80
2023/03/24 12:29:32;;;;;;;;;;;;;;;;;;5000422;28;19918;-80
2023/03/24 12:32:19;;;;;;;;;;;;;;;;;;4976569;28;19922;-80
2023/03/24 12:35:05;;;;;;;;;;;;;;;;;;4997845;28;20604;-80
2023/03/24 12:37:52;;;;;;;;;;;;;;;;;;5005098;28;19913;-80
2023/03/24 12:40:38;;;;;;;;;;;;;;;;;;4992680;28;19921;-80
2023/03/24 12:43:25;;;;;;;;;;;;;;;;;;5003233;28;19949;-80
2023/03/24 12:46:11;;;;;;;;;;;;;;;;;;5009749;28;19932;-80
2023/03/24 12:49:01;;;;;;;;;;;;;;;;;;4993074;28;20292;-80
2023/03/24 12:51:48;;;;;;;;;;;;;;;;;;4997409;28;20628;-80
2023/03/24 12:54:34;;;;;;;;;;;;;;;;;;4991784;28;19928;-80
2023/03/24 12:57:21;;;;;;;;;;;;;;;;;;4998116;28;19917;-79
2023/03/24 13:00:10;;;;;;;;;;;;;;;;;;4988041;28;19932;-80
2023/03/24 13:02:57;;;;;;;;;;;;;;;;;;5002695;28;20282;-80
2023/03/24 13:05:43;;;;;;;;;;;;;;;;;;4998167;28;20740;-81
2023/03/24 13:08:31;;;;;;;;;;;;;;;;;;4997613;28;19921;-80
2023/03/24 13:11:18;;;;;;;;;;;;;;;;;;5004985;28;19921;-81
2023/03/24 13:14:04;;;;;;;;;;;;;;;;;;5004434;28;19933;-80
2023/03/24 13:16:51;;;;;;;;;;;;;;;;;;5001528;28;20293;-80
2023/03/24 13:19:37;;;;;;;;;;;;;;;;;;5002796;28;19918;-81
2023/03/24 13:22:24;;;;;;;;;;;;;;;;;;5000477;28;19924;-80
2023/03/24 13:25:10;;;;;;;;;;;;;;;;;;4986653;28;20483;-81
2023/03/24 13:27:57;;;;;;;;;;;;;;;;;;4997616;28;19922;-81
2023/03/24 13:30:43;;;;;;;;;;;;;;;;;;5007361;28;20699;-80
2023/03/24 13:33:30;;;;;;;;;;;;;;;;;;4994839;28;19922;-80
2023/03/24 13:36:17;;;;;;;;;;;;;;;;;;5006711;28;19921;-81
2023/03/24 13:39:04;;;;;;;;;;;;;;;;;;4991384;28;20365;-81
2023/03/24 13:41:50;;;;;;;;;;;;;;;;;;5006117;28;19929;-80
2023/03/24 13:44:37;;;;;;;;;;;;;;;;;;5006280;28;19925;-80
2023/03/24 13:47:24;;;;;;;;;;;;;;;;;;4989974;28;20657;-80
2023/03/24 13:50:11;;;;;;;;;;;;;;;;;;5001536;28;20285;-80
2023/03/24 13:52:57;;;;;;;;;;;;;;;;;;4992921;28;19926;-79
2023/03/24 13:55:44;;;;;;;;;;;;;;;;;;5003709;28;19951;-81
2023/03/24 13:58:30;;;;;;;;;;;;;;;;;;5006677;28;19924;-81
2023/03/24 14:01:17;;;;;;;;;;;;;;;;;;5009026;28;19928;-81
2023/03/24 14:04:03;;;;;;;;;;;;;;;;;;5004928;28;19925;-81
2023/03/24 14:06:50;;;;;;;;;;;;;;;;;;4991555;28;19924;-81
2023/03/24 14:09:36;;;;;;;;;;;;;;;;;;5006562;28;20377;-81
2023/03/24 14:12:23;;;;;;;;;;;;;;;;;;4999404;28;19918;-81
2023/03/24 14:15:09;;;;;;;;;;;;;;;;;;5008308;28;19936;-82
2023/03/24 14:17:56;;;;;;;;;;;;;;;;;;5008208;28;19918;-81
2023/03/24 14:20:42;;;;;;;;;;;;;;;;;;5007084;28;20632;-81
2023/03/24 14:23:30;;;;;;;;;;;;;;;;;;5003411;28;19928;-81
2023/03/24 14:26:16;;;;;;;;;;;;;;;;;;4998226;28;20400;-81
2023/03/24 14:29:03;;;;;;;;;;;;;;;;;;5004842;28;19922;-81
2023/03/24 14:31:49;;;;;;;;;;;;;;;;;;5002367;28;20215;-80
2023/03/24 14:34:36;;;;;;;;;;;;;;;;;;4991662;28;19913;-81
2023/03/24 14:37:23;;;;;;;;;;;;;;;;;;5002131;28;19928;-81
2023/03/24 14:40:09;;;;;;;;;;;;;;;;;;4995477;28;19917;-81
2023/03/24 14:42:56;;;;;;;;;;;;;;;;;;4990191;28;20381;-81
2023/03/24 14:45:42;;;;;;;;;;;;;;;;;;4995156;28;19918;-81
2023/03/24 14:48:29;;;;;;;;;;;;;;;;;;4986500;28;19924;-80
2023/03/24 14:51:15;;;;;;;;;;;;;;;;;;4988025;28;19920;-79
2023/03/24 14:54:02;;;;;;;;;;;;;;;;;;4995362;28;19917;-80
2023/03/24 14:56:49;;;;;;;;;;;;;;;;;;4996984;28;19921;-80
2023/03/24 14:59:35;;;;;;;;;;;;;;;;;;4992917;28;19929;-80
2023/03/24 15:02:22;;;;;;;;;;;;;;;;;;5007946;28;20448;-80
2023/03/24 15:05:08;;;;;;;;;;;;;;;;;;5002305;28;19926;-80
2023/03/24 15:07:55;;;;;;;;;;;;;;;;;;5000688;28;20296;-81
2023/03/24 15:10:41;;;;;;;;;;;;;;;;;;4999495;28;19917;-81
2023/03/24 15:13:28;;;;;;;;;;;;;;;;;;4998968;28;20305;-81
2023/03/24 15:16:15;;;;;;;;;;;;;;;;;;4994136;28;20099;-81
2023/03/24 15:19:02;;;;;;;;;;;;;;;;;;4990398;28;20320;-81
2023/03/24 15:21:48;;;;;;;;;;;;;;;;;;4994145;28;19918;-81
2023/03/24 15:24:35;;;;;;;;;;;;;;;;;;5011957;28;19933;-80
2023/03/24 15:27:21;;;;;;;;;;;;;;;;;;5001431;28;19920;-81
2023/03/24 15:30:08;;;;;;;;;;;;;;;;;;5005281;28;19921;-81
2023/03/24 15:32:54;;;;;;;;;;;;;;;;;;5005529;28;19922;-81
2023/03/24 15:35:41;;;;;;;;;;;;;;;;;;5001969;28;19921;-81
2023/03/24 15:38:27;;;;;;;;;;;;;;;;;;4997714;28;19918;-81
2023/03/24 15:41:14;;;;;;;;;;;;;;;;;;5003315;28;19929;-81
2023/03/24 15:44:00;;;;;;;;;;;;;;;;;;4987386;28;19958;-81
2023/03/24 15:46:47;;;;;;;;;;;;;;;;;;5005657;28;19925;-81
2023/03/24 15:49:33;;;;;;;;;;;;;;;;;;5004782;28;20392;-81
2023/03/24 15:52:20;;;;;;;;;;;;;;;;;;5000669;28;19917;-80
2023/03/24 15:55:06;;;;;;;;;;;;;;;;;;4999986;28;19917;-81
2023/03/24 15:57:53;;;;;;;;;;;;;;;;;;4993359;28;19929;-80
2023/03/24 16:00:40;;;;;;;;;;;;;;;;;;5002244;28;19917;-81
2023/03/24 16:03:26;;;;;;;;;;;;;;;;;;5001482;28;19928;-81
2023/03/24 16:06:13;;;;;;;;;;;;;;;;;;5001456;28;19937;-81
2023/03/24 16:09:00;;;;;;;;;;;;;;;;;;5005660;28;19924;-80
2023/03/24 16:11:46;;;;;;;;;;;;;;;;;;4995259;28;19929;-80
2023/03/24 16:14:34;;;;;;;;;;;;;;;;;;4993008;28;19929;-79
2023/03/24 16:17:20;;;;;;;;;;;;;;;;;;4998561;28;19946;-80
2023/03/24 16:20:07;;;;;;;;;;;;;;;;;;5002221;28;19940;-81
2023/03/24 16:22:55;;;;;;;;;;;;;;;;;;4984302;28;19922;-80
2023/03/24 16:25:42;;;;;;;;;;;;;;;;;;5003484;28;19921;-80
2023/03/24 16:28:28;;;;;;;;;;;;;;;;;;5003143;28;19917;-81
2023/03/24 16:31:16;;;;;;;;;;;;;;;;;;4996748;28;19945;-80
2023/03/24 16:34:03;;;;;;;;;;;;;;;;;;4997488;28;19914;-81
2023/03/24 16:36:49;;;;;;;;;;;;;;;;;;5000774;28;20668;-80
2023/03/24 16:39:36;;;;;;;;;;;;;;;;;;5003450;28;19923;-80
2023/03/24 16:42:22;;;;;;;;;;;;;;;;;;4994114;28;20381;-80
2023/03/24 16:45:09;;;;;;;;;;;;;;;;;;4999092;28;19922;-81
2023/03/24 16:47:55;;;;;;;;;;;;;;;;;;4998388;28;19925;-80
2023/03/24 16:50:42;;;;;;;;;;;;;;;;;;5000890;28;19929;-80
2023/03/24 16:53:28;;;;;;;;;;;;;;;;;;5000159;28;20385;-81
2023/03/24 16:56:15;;;;;;;;;;;;;;;;;;4996306;28;19918;-80
2023/03/24 16:59:01;;;;;;;;;;;;;;;;;;4993321;28;19917;-81
2023/03/24 17:01:48;;;;;;;;;;;;;;;;;;4999409;28;19928;-80
2023/03/24 17:04:35;;;;;;;;;;;;;;;;;;4998160;28;19949;-80
2023/03/24 17:07:21;;;;;;;;;;;;;;;;;;4990713;28;19918;-80
2023/03/24 17:10:08;;;;;;;;;;;;;;;;;;5000375;28;19924;-80
2023/03/24 17:12:54;;;;;;;;;;;;;;;;;;4999613;28;19918;-80
2023/03/24 17:15:41;;;;;;;;;;;;;;;;;;5003087;28;20348;-83
2023/03/24 17:18:27;;;;;;;;;;;;;;;;;;4999230;28;19921;-81
2023/03/24 17:21:14;;;;;;;;;;;;;;;;;;5001423;28;19918;-81
2023/03/24 17:24:01;;;;;;;;;;;;;;;;;;4994532;28;19948;-82
2023/03/24 17:26:47;;;;;;;;;;;;;;;;;;4993004;28;20377;-80
2023/03/24 17:29:35;;;;;;;;;;;;;;;;;;5000782;28;19924;-80
2023/03/24 17:32:21;;;;;;;;;;;;;;;;;;4996719;28;19913;-79
2023/03/24 17:35:08;;;;;;;;;;;;;;;;;;4998802;28;19918;-81
2023/03/24 17:37:54;;;;;;;;;;;;;;;;;;5008503;28;19924;-81
2023/03/24 17:40:41;;;;;;;;;;;;;;;;;;4983755;28;19914;-79
2023/03/24 17:43:27;;;;;;;;;;;;;;;;;;4999078;28;20261;-81
2023/03/24 17:46:14;;;;;;;;;;;;;;;;;;4986946;28;19918;-80
2023/03/24 17:49:00;;;;;;;;;;;;;;;;;;4993003;28;19921;-80
2023/03/24 17:51:47;;;;;;;;;;;;;;;;;;4992949;28;19917;-81
2023/03/24 17:54:33;;;;;;;;;;;;;;;;;;5000517;28;20475;-80
2023/03/24 17:57:20;;;;;;;;;;;;;;;;;;4997069;28;19917;-79
2023/03/24 18:00:10;;;;;;;;;;;;;;;;;;4991858;28;19924;-80
2023/03/24 18:02:57;;;;;;;;;;;;;;;;;;5000017;28;19917;-81
2023/03/24 18:05:43;;;;;;;;;;;;;;;;;;4997991;28;19925;-80
2023/03/24 18:08:30;;;;;;;;;;;;;;;;;;5001198;28;20147;-80
2023/03/24 18:11:16;;;;;;;;;;;;;;;;;;4994685;28;19924;-80
2023/03/24 18:14:03;;;;;;;;;;;;;;;;;;4990696;28;19930;-81
2023/03/24 18:16:49;;;;;;;;;;;;;;;;;;5007158;28;19925;-80
2023/03/24 18:19:37;;;;;;;;;;;;;;;;;;5004351;28;19922;-80
2023/03/24 18:22:23;;;;;;;;;;;;;;;;;;5004495;28;20385;-81
2023/03/24 18:25:10;;;;;;;;;;;;;;;;;;5007402;28;19929;-80
2023/03/24 18:27:56;;;;;;;;;;;;;;;;;;4995117;28;19933;-80
2023/03/24 18:30:43;;;;;;;;;;;;;;;;;;5004530;28;20573;-77
2023/03/24 18:33:30;;;;;;;;;;;;;;;;;;4996093;28;20650;-81
2023/03/24 18:36:19;;;;;;;;;;;;;;;;;;4988702;28;19937;-80
2023/03/24 18:39:09;;;;;;;;;;;;;;;;;;4991515;28;19925;-81
2023/03/24 18:41:56;;;;;;;;;;;;;;;;;;5004195;28;19928;-81
2023/03/24 18:44:43;;;;;;;;;;;;;;;;;;4993087;28;19930;-81
2023/03/24 18:47:30;;;;;;;;;;;;;;;;;;4998898;28;20652;-81
2023/03/24 18:50:16;;;;;;;;;;;;;;;;;;4998601;28;19913;-82
2023/03/24 18:53:03;;;;;;;;;;;;;;;;;;4995768;28;20297;-82
2023/03/24 18:55:49;;;;;;;;;;;;;;;;;;4995617;28;19918;-81
2023/03/24 18:58:39;;;;;;;;;;;;;;;;;;5003573;28;19925;-81